sensor_id;sensor_type;location;lat;lon;timestamp;temperature;humidity
939;DHT22;456;53.584;9.968;2022-12-18T00:01:25;17.30;7.20
939;DHT22;456;53.584;9.968;2022-12-18T00:03:52;17.20;7.10
939;DHT22;456;53.584;9.968;2022-12-18T00:06:19;17.20;7.00
939;DHT22;456;53.584;9.968;2022-12-18T00:08:45;17.20;7.00
939;DHT22;456;53.584;9.968;2022-12-18T00:11:14;17.20;7.00
939;DHT22;456;53.584;9.968;2022-12-18T00:13:40;17.20;7.00
939;DHT22;456;53.584;9.968;2022-12-18T00:16:09;17.30;7.00
939;DHT22;456;53.584;9.968;2022-12-18T00:18:36;17.30;6.90
939;DHT22;456;53.584;9.968;2022-12-18T00:21:03;17.20;7.00
939;DHT22;456;53.584;9.968;2022-12-18T00:23:30;17.30;6.90
939;DHT22;456;53.584;9.968;2022-12-18T00:26:04;17.30;7.00
939;DHT22;456;53.584;9.968;2022-12-18T00:28:30;17.30;7.00
939;DHT22;456;53.584;9.968;2022-12-18T00:31:02;17.30;7.00
939;DHT22;456;53.584;9.968;2022-12-18T00:33:28;17.30;6.90
939;DHT22;456;53.584;9.968;2022-12-18T00:35:54;17.30;7.00
939;DHT22;456;53.584;9.968;2022-12-18T00:38:20;17.30;7.00
939;DHT22;456;53.584;9.968;2022-12-18T00:40:45;17.30;7.00
939;DHT22;456;53.584;9.968;2022-12-18T00:43:11;17.20;6.80
939;DHT22;456;53.584;9.968;2022-12-18T00:45:36;17.30;6.90
939;DHT22;456;53.584;9.968;2022-12-18T00:48:02;17.20;6.90
939;DHT22;456;53.584;9.968;2022-12-18T00:50:28;17.20;6.80
939;DHT22;456;53.584;9.968;2022-12-18T00:52:53;17.20;6.80
939;DHT22;456;53.584;9.968;2022-12-18T00:55:19;17.20;6.80
939;DHT22;456;53.584;9.968;2022-12-18T00:57:44;17.20;6.80
939;DHT22;456;53.584;9.968;2022-12-18T01:00:13;17.20;6.90
939;DHT22;456;53.584;9.968;2022-12-18T01:02:39;17.20;6.80
939;DHT22;456;53.584;9.968;2022-12-18T01:05:05;17.20;6.80
939;DHT22;456;53.584;9.968;2022-12-18T01:07:31;17.20;6.80
939;DHT22;456;53.584;9.968;2022-12-18T01:10:00;17.20;6.90
939;DHT22;456;53.584;9.968;2022-12-18T01:12:25;17.20;6.50
939;DHT22;456;53.584;9.968;2022-12-18T01:14:51;17.20;6.30
939;DHT22;456;53.584;9.968;2022-12-18T01:17:16;17.20;6.70
939;DHT22;456;53.584;9.968;2022-12-18T01:19:42;17.20;6.60
939;DHT22;456;53.584;9.968;2022-12-18T01:22:07;17.20;6.70
939;DHT22;456;53.584;9.968;2022-12-18T01:24:33;17.20;6.90
939;DHT22;456;53.584;9.968;2022-12-18T01:26:59;17.20;6.80
939;DHT22;456;53.584;9.968;2022-12-18T01:29:24;17.20;6.70
939;DHT22;456;53.584;9.968;2022-12-18T01:31:50;17.20;6.60
939;DHT22;456;53.584;9.968;2022-12-18T01:34:15;17.20;6.70
939;DHT22;456;53.584;9.968;2022-12-18T01:36:41;17.20;6.70
939;DHT22;456;53.584;9.968;2022-12-18T01:39:12;17.20;6.60
939;DHT22;456;53.584;9.968;2022-12-18T01:41:38;17.20;6.50
939;DHT22;456;53.584;9.968;2022-12-18T01:44:56;17.20;6.50
939;DHT22;456;53.584;9.968;2022-12-18T01:49:50;17.20;6.60
939;DHT22;456;53.584;9.968;2022-12-18T01:52:17;17.20;6.60
939;DHT22;456;53.584;9.968;2022-12-18T01:54:43;17.20;6.70
939;DHT22;456;53.584;9.968;2022-12-18T01:57:09;17.20;6.70
939;DHT22;456;53.584;9.968;2022-12-18T01:59:35;17.20;6.70
939;DHT22;456;53.584;9.968;2022-12-18T02:02:02;17.20;6.70
939;DHT22;456;53.584;9.968;2022-12-18T02:04:28;17.20;6.70
939;DHT22;456;53.584;9.968;2022-12-18T02:09:46;17.20;7.30
939;DHT22;456;53.584;9.968;2022-12-18T02:12:17;17.20;6.70
939;DHT22;456;53.584;9.968;2022-12-18T02:15:03;17.20;6.70
939;DHT22;456;53.584;9.968;2022-12-18T02:17:52;17.20;6.40
939;DHT22;456;53.584;9.968;2022-12-18T02:20:21;17.20;6.60
939;DHT22;456;53.584;9.968;2022-12-18T02:26:14;17.20;6.70
939;DHT22;456;53.584;9.968;2022-12-18T02:28:53;17.20;6.70
939;DHT22;456;53.584;9.968;2022-12-18T02:31:24;17.20;6.40
939;DHT22;456;53.584;9.968;2022-12-18T02:33:53;17.20;6.50
939;DHT22;456;53.584;9.968;2022-12-18T02:36:21;17.20;6.60
939;DHT22;456;53.584;9.968;2022-12-18T02:38:48;17.20;6.70
939;DHT22;456;53.584;9.968;2022-12-18T02:41:15;17.20;6.20
939;DHT22;456;53.584;9.968;2022-12-18T02:43:50;17.20;6.60
939;DHT22;456;53.584;9.968;2022-12-18T02:46:43;17.20;6.60
939;DHT22;456;53.584;9.968;2022-12-18T02:51:54;17.20;6.40
939;DHT22;456;53.584;9.968;2022-12-18T03:00:08;17.20;7.10
939;DHT22;456;53.584;9.968;2022-12-18T03:08:39;17.20;6.40
939;DHT22;456;53.584;9.968;2022-12-18T03:11:09;17.20;6.50
939;DHT22;456;53.584;9.968;2022-12-18T03:13:43;17.20;6.50
939;DHT22;456;53.584;9.968;2022-12-18T03:16:12;17.20;6.50
939;DHT22;456;53.584;9.968;2022-12-18T03:18:48;17.20;6.50
939;DHT22;456;53.584;9.968;2022-12-18T03:21:18;17.10;7.00
939;DHT22;456;53.584;9.968;2022-12-18T03:23:48;17.20;6.50
939;DHT22;456;53.584;9.968;2022-12-18T03:26:17;17.20;6.50
939;DHT22;456;53.584;9.968;2022-12-18T03:28:49;17.20;6.50
939;DHT22;456;53.584;9.968;2022-12-18T03:31:17;17.20;6.40
939;DHT22;456;53.584;9.968;2022-12-18T03:33:51;17.20;6.50
939;DHT22;456;53.584;9.968;2022-12-18T03:36:17;17.10;6.30
939;DHT22;456;53.584;9.968;2022-12-18T03:38:43;17.20;6.30
939;DHT22;456;53.584;9.968;2022-12-18T03:41:19;17.20;6.40
939;DHT22;456;53.584;9.968;2022-12-18T03:52:57;17.10;6.20
939;DHT22;456;53.584;9.968;2022-12-18T03:55:27;17.10;5.70
939;DHT22;456;53.584;9.968;2022-12-18T03:57:56;17.10;6.00
939;DHT22;456;53.584;9.968;2022-12-18T04:00:22;17.10;6.20
939;DHT22;456;53.584;9.968;2022-12-18T04:02:52;17.10;6.30
939;DHT22;456;53.584;9.968;2022-12-18T04:05:19;17.20;6.30
939;DHT22;456;53.584;9.968;2022-12-18T04:07:47;17.20;6.30
939;DHT22;456;53.584;9.968;2022-12-18T04:10:15;17.20;6.20
939;DHT22;456;53.584;9.968;2022-12-18T04:12:41;17.20;6.20
939;DHT22;456;53.584;9.968;2022-12-18T04:15:08;17.20;6.30
939;DHT22;456;53.584;9.968;2022-12-18T04:17:34;17.20;6.30
939;DHT22;456;53.584;9.968;2022-12-18T04:19:59;17.20;6.20
939;DHT22;456;53.584;9.968;2022-12-18T04:22:25;17.20;6.30
939;DHT22;456;53.584;9.968;2022-12-18T04:24:50;17.20;6.30
939;DHT22;456;53.584;9.968;2022-12-18T04:27:16;17.20;6.30
939;DHT22;456;53.584;9.968;2022-12-18T04:29:41;17.20;6.30
939;DHT22;456;53.584;9.968;2022-12-18T04:32:08;17.20;6.80
939;DHT22;456;53.584;9.968;2022-12-18T04:34:33;17.20;6.20
939;DHT22;456;53.584;9.968;2022-12-18T04:36:59;17.20;5.90
939;DHT22;456;53.584;9.968;2022-12-18T04:39:24;17.10;6.10
939;DHT22;456;53.584;9.968;2022-12-18T04:41:50;17.10;6.20
939;DHT22;456;53.584;9.968;2022-12-18T04:44:16;17.20;6.30
939;DHT22;456;53.584;9.968;2022-12-18T04:46:41;17.20;6.30
939;DHT22;456;53.584;9.968;2022-12-18T04:49:07;17.10;6.00
939;DHT22;456;53.584;9.968;2022-12-18T04:51:32;17.20;6.30
939;DHT22;456;53.584;9.968;2022-12-18T04:53:58;17.10;6.10
939;DHT22;456;53.584;9.968;2022-12-18T04:56:24;17.10;5.70
939;DHT22;456;53.584;9.968;2022-12-18T04:58:49;17.10;5.70
939;DHT22;456;53.584;9.968;2022-12-18T05:01:16;17.10;6.00
939;DHT22;456;53.584;9.968;2022-12-18T05:03:42;17.10;6.00
939;DHT22;456;53.584;9.968;2022-12-18T05:06:08;17.10;6.10
939;DHT22;456;53.584;9.968;2022-12-18T05:08:34;17.10;6.00
939;DHT22;456;53.584;9.968;2022-12-18T05:11:02;17.10;6.40
939;DHT22;456;53.584;9.968;2022-12-18T05:13:28;17.10;5.90
939;DHT22;456;53.584;9.968;2022-12-18T05:15:54;17.10;5.50
939;DHT22;456;53.584;9.968;2022-12-18T05:18:20;17.10;5.70
939;DHT22;456;53.584;9.968;2022-12-18T05:20:46;17.10;6.40
939;DHT22;456;53.584;9.968;2022-12-18T05:23:11;17.10;6.30
939;DHT22;456;53.584;9.968;2022-12-18T05:25:37;17.10;6.30
939;DHT22;456;53.584;9.968;2022-12-18T05:28:02;17.10;6.20
939;DHT22;456;53.584;9.968;2022-12-18T05:30:28;17.20;6.30
939;DHT22;456;53.584;9.968;2022-12-18T05:32:54;17.10;6.20
939;DHT22;456;53.584;9.968;2022-12-18T05:35:20;17.10;6.20
939;DHT22;456;53.584;9.968;2022-12-18T05:37:45;17.10;6.20
939;DHT22;456;53.584;9.968;2022-12-18T05:40:11;17.20;6.30
939;DHT22;456;53.584;9.968;2022-12-18T05:42:37;17.20;6.20
939;DHT22;456;53.584;9.968;2022-12-18T05:45:04;17.20;6.00
939;DHT22;456;53.584;9.968;2022-12-18T05:47:30;17.20;6.00
939;DHT22;456;53.584;9.968;2022-12-18T05:49:55;17.10;5.50
939;DHT22;456;53.584;9.968;2022-12-18T05:52:21;17.20;5.40
939;DHT22;456;53.584;9.968;2022-12-18T05:54:46;17.20;5.50
939;DHT22;456;53.584;9.968;2022-12-18T05:57:12;17.10;5.50
939;DHT22;456;53.584;9.968;2022-12-18T05:59:38;17.10;5.60
939;DHT22;456;53.584;9.968;2022-12-18T06:02:03;17.20;5.70
939;DHT22;456;53.584;9.968;2022-12-18T06:04:29;17.20;5.70
939;DHT22;456;53.584;9.968;2022-12-18T06:06:54;17.20;5.80
939;DHT22;456;53.584;9.968;2022-12-18T06:09:20;17.20;5.70
939;DHT22;456;53.584;9.968;2022-12-18T06:11:45;17.20;5.70
939;DHT22;456;53.584;9.968;2022-12-18T06:14:11;17.20;5.70
939;DHT22;456;53.584;9.968;2022-12-18T06:16:36;17.20;5.70
939;DHT22;456;53.584;9.968;2022-12-18T06:19:04;17.20;5.60
939;DHT22;456;53.584;9.968;2022-12-18T06:21:31;17.20;5.60
939;DHT22;456;53.584;9.968;2022-12-18T06:23:56;17.20;5.50
939;DHT22;456;53.584;9.968;2022-12-18T06:26:22;17.20;5.60
939;DHT22;456;53.584;9.968;2022-12-18T06:28:48;17.20;5.50
939;DHT22;456;53.584;9.968;2022-12-18T06:31:13;17.20;5.30
939;DHT22;456;53.584;9.968;2022-12-18T06:33:39;17.20;5.30
939;DHT22;456;53.584;9.968;2022-12-18T06:36:09;17.20;5.40
939;DHT22;456;53.584;9.968;2022-12-18T06:38:37;17.20;5.30
939;DHT22;456;53.584;9.968;2022-12-18T06:41:07;17.20;5.30
939;DHT22;456;53.584;9.968;2022-12-18T06:43:33;17.20;5.60
939;DHT22;456;53.584;9.968;2022-12-18T06:46:02;17.20;5.50
939;DHT22;456;53.584;9.968;2022-12-18T06:48:28;17.20;5.70
939;DHT22;456;53.584;9.968;2022-12-18T06:50:54;17.30;5.70
939;DHT22;456;53.584;9.968;2022-12-18T06:53:20;17.30;5.70
939;DHT22;456;53.584;9.968;2022-12-18T06:55:45;17.30;5.80
939;DHT22;456;53.584;9.968;2022-12-18T06:58:11;17.30;5.80
939;DHT22;456;53.584;9.968;2022-12-18T07:00:36;17.30;5.80
939;DHT22;456;53.584;9.968;2022-12-18T07:03:02;17.20;5.70
939;DHT22;456;53.584;9.968;2022-12-18T07:05:28;17.30;5.90
939;DHT22;456;53.584;9.968;2022-12-18T07:07:53;17.30;5.90
939;DHT22;456;53.584;9.968;2022-12-18T07:10:19;17.20;5.70
939;DHT22;456;53.584;9.968;2022-12-18T07:12:44;17.20;5.70
939;DHT22;456;53.584;9.968;2022-12-18T07:15:10;17.20;5.70
939;DHT22;456;53.584;9.968;2022-12-18T07:17:35;17.20;5.70
939;DHT22;456;53.584;9.968;2022-12-18T07:20:01;17.20;5.70
939;DHT22;456;53.584;9.968;2022-12-18T07:22:27;17.20;5.70
939;DHT22;456;53.584;9.968;2022-12-18T07:24:53;17.30;5.80
939;DHT22;456;53.584;9.968;2022-12-18T07:27:18;17.20;5.70
939;DHT22;456;53.584;9.968;2022-12-18T07:29:44;17.20;5.60
939;DHT22;456;53.584;9.968;2022-12-18T07:32:10;17.20;5.70
939;DHT22;456;53.584;9.968;2022-12-18T07:34:35;17.20;5.70
939;DHT22;456;53.584;9.968;2022-12-18T07:37:01;17.20;5.70
939;DHT22;456;53.584;9.968;2022-12-18T07:39:26;17.20;5.90
939;DHT22;456;53.584;9.968;2022-12-18T07:41:52;17.20;5.90
939;DHT22;456;53.584;9.968;2022-12-18T07:44:36;17.20;5.90
939;DHT22;456;53.584;9.968;2022-12-18T07:47:02;17.20;5.90
939;DHT22;456;53.584;9.968;2022-12-18T07:49:28;17.20;5.90
939;DHT22;456;53.584;9.968;2022-12-18T07:51:55;17.20;5.60
939;DHT22;456;53.584;9.968;2022-12-18T07:54:22;17.20;5.60
939;DHT22;456;53.584;9.968;2022-12-18T07:56:48;17.20;5.60
939;DHT22;456;53.584;9.968;2022-12-18T07:59:14;17.30;5.70
939;DHT22;456;53.584;9.968;2022-12-18T08:01:39;17.30;5.70
939;DHT22;456;53.584;9.968;2022-12-18T08:04:05;17.20;5.60
939;DHT22;456;53.584;9.968;2022-12-18T08:06:30;17.30;5.70
939;DHT22;456;53.584;9.968;2022-12-18T08:08:56;17.30;5.70
939;DHT22;456;53.584;9.968;2022-12-18T08:11:23;17.30;5.70
939;DHT22;456;53.584;9.968;2022-12-18T08:13:49;17.30;5.70
939;DHT22;456;53.584;9.968;2022-12-18T08:16:15;17.30;5.70
939;DHT22;456;53.584;9.968;2022-12-18T08:18:41;17.30;5.70
939;DHT22;456;53.584;9.968;2022-12-18T08:21:16;17.30;5.70
939;DHT22;456;53.584;9.968;2022-12-18T08:23:42;17.30;5.70
939;DHT22;456;53.584;9.968;2022-12-18T08:26:09;17.30;5.70
939;DHT22;456;53.584;9.968;2022-12-18T08:28:35;17.30;5.70
939;DHT22;456;53.584;9.968;2022-12-18T08:31:01;17.30;5.70
939;DHT22;456;53.584;9.968;2022-12-18T08:33:26;17.30;5.70
939;DHT22;456;53.584;9.968;2022-12-18T08:35:52;17.30;5.80
939;DHT22;456;53.584;9.968;2022-12-18T08:38:18;17.30;5.70
939;DHT22;456;53.584;9.968;2022-12-18T08:40:44;17.30;5.70
939;DHT22;456;53.584;9.968;2022-12-18T08:43:10;17.30;5.80
939;DHT22;456;53.584;9.968;2022-12-18T08:45:54;17.30;5.60
939;DHT22;456;53.584;9.968;2022-12-18T08:48:20;17.30;5.70
939;DHT22;456;53.584;9.968;2022-12-18T08:50:56;17.30;5.70
939;DHT22;456;53.584;9.968;2022-12-18T08:53:25;17.30;5.60
939;DHT22;456;53.584;9.968;2022-12-18T08:55:51;17.30;5.60
939;DHT22;456;53.584;9.968;2022-12-18T08:58:17;17.30;5.60
939;DHT22;456;53.584;9.968;2022-12-18T09:00:43;17.30;5.60
939;DHT22;456;53.584;9.968;2022-12-18T09:03:16;17.30;5.60
939;DHT22;456;53.584;9.968;2022-12-18T09:05:43;17.30;5.50
939;DHT22;456;53.584;9.968;2022-12-18T09:08:09;17.30;5.60
939;DHT22;456;53.584;9.968;2022-12-18T09:10:41;17.30;5.60
939;DHT22;456;53.584;9.968;2022-12-18T09:13:07;17.30;5.70
939;DHT22;456;53.584;9.968;2022-12-18T09:15:33;17.20;5.50
939;DHT22;456;53.584;9.968;2022-12-18T09:17:58;17.30;5.80
939;DHT22;456;53.584;9.968;2022-12-18T09:20:24;17.30;5.70
939;DHT22;456;53.584;9.968;2022-12-18T09:22:50;17.30;5.70
939;DHT22;456;53.584;9.968;2022-12-18T09:25:15;17.30;5.70
939;DHT22;456;53.584;9.968;2022-12-18T09:27:41;17.30;5.70
939;DHT22;456;53.584;9.968;2022-12-18T09:30:07;17.30;5.70
939;DHT22;456;53.584;9.968;2022-12-18T09:32:33;17.40;5.70
939;DHT22;456;53.584;9.968;2022-12-18T09:34:58;17.40;5.80
939;DHT22;456;53.584;9.968;2022-12-18T09:37:24;17.40;5.70
939;DHT22;456;53.584;9.968;2022-12-18T09:39:49;17.30;5.60
939;DHT22;456;53.584;9.968;2022-12-18T09:42:20;17.40;5.80
939;DHT22;456;53.584;9.968;2022-12-18T09:44:50;17.40;5.70
939;DHT22;456;53.584;9.968;2022-12-18T09:47:30;17.40;5.70
939;DHT22;456;53.584;9.968;2022-12-18T09:50:02;17.40;5.70
939;DHT22;456;53.584;9.968;2022-12-18T09:52:34;17.40;5.80
939;DHT22;456;53.584;9.968;2022-12-18T09:55:24;17.30;5.70
939;DHT22;456;53.584;9.968;2022-12-18T09:57:51;17.40;5.80
939;DHT22;456;53.584;9.968;2022-12-18T10:00:20;17.40;5.70
939;DHT22;456;53.584;9.968;2022-12-18T10:02:47;17.40;5.80
939;DHT22;456;53.584;9.968;2022-12-18T10:05:19;17.40;5.80
939;DHT22;456;53.584;9.968;2022-12-18T10:21:32;17.30;6.30
939;DHT22;456;53.584;9.968;2022-12-18T10:26:53;17.30;5.70
939;DHT22;456;53.584;9.968;2022-12-18T10:29:22;17.30;5.80
939;DHT22;456;53.584;9.968;2022-12-18T10:31:50;17.30;5.70
939;DHT22;456;53.584;9.968;2022-12-18T10:34:15;17.30;5.70
939;DHT22;456;53.584;9.968;2022-12-18T10:36:41;17.30;5.70
939;DHT22;456;53.584;9.968;2022-12-18T10:39:19;17.30;5.80
939;DHT22;456;53.584;9.968;2022-12-18T10:41:46;17.30;5.80
939;DHT22;456;53.584;9.968;2022-12-18T10:44:23;17.30;5.90
939;DHT22;456;53.584;9.968;2022-12-18T10:46:51;17.40;5.90
939;DHT22;456;53.584;9.968;2022-12-18T10:49:30;17.40;6.00
939;DHT22;456;53.584;9.968;2022-12-18T10:52:14;17.40;5.90
939;DHT22;456;53.584;9.968;2022-12-18T10:54:45;17.40;5.90
939;DHT22;456;53.584;9.968;2022-12-18T10:57:16;17.40;5.90
939;DHT22;456;53.584;9.968;2022-12-18T10:59:55;17.40;5.90
939;DHT22;456;53.584;9.968;2022-12-18T11:04:52;17.40;6.00
939;DHT22;456;53.584;9.968;2022-12-18T11:07:18;17.40;6.00
939;DHT22;456;53.584;9.968;2022-12-18T11:09:43;17.40;5.90
939;DHT22;456;53.584;9.968;2022-12-18T11:12:24;17.40;5.90
939;DHT22;456;53.584;9.968;2022-12-18T11:14:53;17.40;5.80
939;DHT22;456;53.584;9.968;2022-12-18T11:17:33;17.40;5.90
939;DHT22;456;53.584;9.968;2022-12-18T11:20:03;17.30;6.20
939;DHT22;456;53.584;9.968;2022-12-18T11:22:34;17.30;5.40
939;DHT22;456;53.584;9.968;2022-12-18T11:25:19;17.30;5.10
939;DHT22;456;53.584;9.968;2022-12-18T11:27:54;17.30;5.20
939;DHT22;456;53.584;9.968;2022-12-18T11:30:21;17.30;5.60
939;DHT22;456;53.584;9.968;2022-12-18T11:32:49;17.30;5.70
939;DHT22;456;53.584;9.968;2022-12-18T11:35:59;17.30;5.60
939;DHT22;456;53.584;9.968;2022-12-18T11:38:26;17.40;5.90
939;DHT22;456;53.584;9.968;2022-12-18T11:41:06;17.30;6.00
939;DHT22;456;53.584;9.968;2022-12-18T11:46:17;17.30;6.00
939;DHT22;456;53.584;9.968;2022-12-18T11:48:57;17.30;6.10
939;DHT22;456;53.584;9.968;2022-12-18T11:51:32;17.30;6.00
939;DHT22;456;53.584;9.968;2022-12-18T11:54:00;17.30;6.00
939;DHT22;456;53.584;9.968;2022-12-18T11:56:36;17.40;6.10
939;DHT22;456;53.584;9.968;2022-12-18T12:01:55;17.30;6.00
939;DHT22;456;53.584;9.968;2022-12-18T12:04:38;17.40;6.20
939;DHT22;456;53.584;9.968;2022-12-18T12:09:41;17.30;6.20
939;DHT22;456;53.584;9.968;2022-12-18T12:12:27;17.30;6.20
939;DHT22;456;53.584;9.968;2022-12-18T12:17:59;17.30;6.20
939;DHT22;456;53.584;9.968;2022-12-18T12:26:27;17.30;6.20
939;DHT22;456;53.584;9.968;2022-12-18T12:29:00;17.30;6.10
939;DHT22;456;53.584;9.968;2022-12-18T12:40:17;17.40;6.10
939;DHT22;456;53.584;9.968;2022-12-18T12:42:47;17.40;6.10
939;DHT22;456;53.584;9.968;2022-12-18T12:45:40;17.40;6.00
939;DHT22;456;53.584;9.968;2022-12-18T12:48:15;17.30;5.90
939;DHT22;456;53.584;9.968;2022-12-18T12:50:42;17.40;6.00
939;DHT22;456;53.584;9.968;2022-12-18T12:53:09;17.30;6.10
939;DHT22;456;53.584;9.968;2022-12-18T12:55:40;17.40;6.20
939;DHT22;456;53.584;9.968;2022-12-18T12:58:20;17.40;6.20
939;DHT22;456;53.584;9.968;2022-12-18T13:03:53;17.30;6.10
939;DHT22;456;53.584;9.968;2022-12-18T13:06:37;17.40;6.10
939;DHT22;456;53.584;9.968;2022-12-18T13:09:05;17.40;6.20
939;DHT22;456;53.584;9.968;2022-12-18T13:11:45;17.30;6.20
939;DHT22;456;53.584;9.968;2022-12-18T13:14:35;17.30;6.20
939;DHT22;456;53.584;9.968;2022-12-18T13:20:10;17.40;6.30
939;DHT22;456;53.584;9.968;2022-12-18T13:25:02;17.40;6.20
939;DHT22;456;53.584;9.968;2022-12-18T13:30:49;17.40;6.30
939;DHT22;456;53.584;9.968;2022-12-18T13:33:46;17.40;6.20
939;DHT22;456;53.584;9.968;2022-12-18T13:41:41;17.40;6.20
939;DHT22;456;53.584;9.968;2022-12-18T13:44:13;17.50;6.30
939;DHT22;456;53.584;9.968;2022-12-18T13:46:48;17.40;6.20
939;DHT22;456;53.584;9.968;2022-12-18T13:52:03;17.40;6.40
939;DHT22;456;53.584;9.968;2022-12-18T13:54:41;17.40;6.40
939;DHT22;456;53.584;9.968;2022-12-18T13:57:44;17.40;6.20
939;DHT22;456;53.584;9.968;2022-12-18T14:02:48;17.40;6.40
939;DHT22;456;53.584;9.968;2022-12-18T14:05:40;17.40;6.40
939;DHT22;456;53.584;9.968;2022-12-18T14:08:12;17.40;6.40
939;DHT22;456;53.584;9.968;2022-12-18T14:10:44;17.40;6.40
939;DHT22;456;53.584;9.968;2022-12-18T14:13:23;17.40;6.40
939;DHT22;456;53.584;9.968;2022-12-18T14:15:50;17.40;6.40
939;DHT22;456;53.584;9.968;2022-12-18T14:21:06;17.40;6.40
939;DHT22;456;53.584;9.968;2022-12-18T14:23:41;17.40;6.50
939;DHT22;456;53.584;9.968;2022-12-18T14:26:26;17.40;6.50
939;DHT22;456;53.584;9.968;2022-12-18T14:28:58;17.40;6.60
939;DHT22;456;53.584;9.968;2022-12-18T14:31:28;17.40;6.50
939;DHT22;456;53.584;9.968;2022-12-18T14:33:54;17.40;6.40
939;DHT22;456;53.584;9.968;2022-12-18T14:36:25;17.50;6.50
939;DHT22;456;53.584;9.968;2022-12-18T14:38:58;17.50;6.40
939;DHT22;456;53.584;9.968;2022-12-18T14:41:25;17.50;6.40
939;DHT22;456;53.584;9.968;2022-12-18T14:43:53;17.50;6.40
939;DHT22;456;53.584;9.968;2022-12-18T14:46:39;17.50;6.40
939;DHT22;456;53.584;9.968;2022-12-18T14:51:52;17.50;6.60
939;DHT22;456;53.584;9.968;2022-12-18T14:54:19;17.50;6.50
939;DHT22;456;53.584;9.968;2022-12-18T14:57:05;17.50;6.50
939;DHT22;456;53.584;9.968;2022-12-18T14:59:39;17.50;6.50
939;DHT22;456;53.584;9.968;2022-12-18T15:02:26;17.50;6.60
939;DHT22;456;53.584;9.968;2022-12-18T15:07:50;17.50;6.60
939;DHT22;456;53.584;9.968;2022-12-18T15:10:29;17.50;6.60
939;DHT22;456;53.584;9.968;2022-12-18T15:18:00;17.40;6.50
939;DHT22;456;53.584;9.968;2022-12-18T15:20:25;17.40;6.60
939;DHT22;456;53.584;9.968;2022-12-18T15:22:52;17.40;6.30
939;DHT22;456;53.584;9.968;2022-12-18T15:25:34;17.40;6.60
939;DHT22;456;53.584;9.968;2022-12-18T15:28:02;17.40;6.60
939;DHT22;456;53.584;9.968;2022-12-18T15:30:28;17.40;6.60
939;DHT22;456;53.584;9.968;2022-12-18T15:33:23;17.40;6.70
939;DHT22;456;53.584;9.968;2022-12-18T15:35:56;17.40;6.60
939;DHT22;456;53.584;9.968;2022-12-18T15:38:23;17.40;6.60
939;DHT22;456;53.584;9.968;2022-12-18T15:40:48;17.40;7.10
939;DHT22;456;53.584;9.968;2022-12-18T15:43:14;17.40;6.40
939;DHT22;456;53.584;9.968;2022-12-18T15:45:58;17.40;6.40
939;DHT22;456;53.584;9.968;2022-12-18T15:48:23;17.40;6.40
939;DHT22;456;53.584;9.968;2022-12-18T15:50:54;17.40;6.40
939;DHT22;456;53.584;9.968;2022-12-18T15:53:27;17.40;6.50
939;DHT22;456;53.584;9.968;2022-12-18T15:55:53;17.50;6.50
939;DHT22;456;53.584;9.968;2022-12-18T15:58:38;17.50;6.60
939;DHT22;456;53.584;9.968;2022-12-18T16:01:03;17.40;6.50
939;DHT22;456;53.584;9.968;2022-12-18T16:03:30;17.50;6.60
939;DHT22;456;53.584;9.968;2022-12-18T16:05:56;17.50;6.50
939;DHT22;456;53.584;9.968;2022-12-18T16:08:23;17.50;6.50
939;DHT22;456;53.584;9.968;2022-12-18T16:10:49;17.50;6.60
939;DHT22;456;53.584;9.968;2022-12-18T16:13:16;17.50;6.60
939;DHT22;456;53.584;9.968;2022-12-18T16:15:43;17.50;6.60
939;DHT22;456;53.584;9.968;2022-12-18T16:18:08;17.50;6.60
939;DHT22;456;53.584;9.968;2022-12-18T16:20:34;17.50;6.60
939;DHT22;456;53.584;9.968;2022-12-18T16:22:59;17.50;6.60
939;DHT22;456;53.584;9.968;2022-12-18T16:25:27;17.50;6.60
939;DHT22;456;53.584;9.968;2022-12-18T16:27:54;17.50;6.60
939;DHT22;456;53.584;9.968;2022-12-18T16:30:26;17.50;6.60
939;DHT22;456;53.584;9.968;2022-12-18T16:32:53;17.50;6.60
939;DHT22;456;53.584;9.968;2022-12-18T16:35:19;17.50;6.60
939;DHT22;456;53.584;9.968;2022-12-18T16:37:45;17.50;6.50
939;DHT22;456;53.584;9.968;2022-12-18T16:40:14;17.50;6.60
939;DHT22;456;53.584;9.968;2022-12-18T16:42:41;17.50;6.60
939;DHT22;456;53.584;9.968;2022-12-18T16:45:09;17.40;6.40
939;DHT22;456;53.584;9.968;2022-12-18T16:47:35;17.40;6.50
939;DHT22;456;53.584;9.968;2022-12-18T16:50:00;17.40;6.40
939;DHT22;456;53.584;9.968;2022-12-18T16:52:27;17.40;6.40
939;DHT22;456;53.584;9.968;2022-12-18T16:54:53;17.50;6.50
939;DHT22;456;53.584;9.968;2022-12-18T16:57:19;17.50;6.60
939;DHT22;456;53.584;9.968;2022-12-18T16:59:46;17.40;6.50
939;DHT22;456;53.584;9.968;2022-12-18T17:02:20;17.40;6.50
939;DHT22;456;53.584;9.968;2022-12-18T17:04:46;17.40;6.50
939;DHT22;456;53.584;9.968;2022-12-18T17:07:13;17.50;6.60
939;DHT22;456;53.584;9.968;2022-12-18T17:09:39;17.40;6.60
939;DHT22;456;53.584;9.968;2022-12-18T17:12:05;17.40;6.50
939;DHT22;456;53.584;9.968;2022-12-18T17:14:31;17.40;6.60
939;DHT22;456;53.584;9.968;2022-12-18T17:16:57;17.50;6.70
939;DHT22;456;53.584;9.968;2022-12-18T17:19:25;17.40;6.60
939;DHT22;456;53.584;9.968;2022-12-18T17:21:51;17.50;6.60
939;DHT22;456;53.584;9.968;2022-12-18T17:24:17;17.50;6.60
939;DHT22;456;53.584;9.968;2022-12-18T17:26:43;17.50;6.60
939;DHT22;456;53.584;9.968;2022-12-18T17:29:14;17.50;6.60
939;DHT22;456;53.584;9.968;2022-12-18T17:31:39;17.50;6.60
939;DHT22;456;53.584;9.968;2022-12-18T17:34:05;17.50;6.60
939;DHT22;456;53.584;9.968;2022-12-18T17:36:31;17.50;6.70
939;DHT22;456;53.584;9.968;2022-12-18T17:38:59;17.50;7.20
939;DHT22;456;53.584;9.968;2022-12-18T17:41:26;17.50;6.70
939;DHT22;456;53.584;9.968;2022-12-18T17:43:54;17.40;6.60
939;DHT22;456;53.584;9.968;2022-12-18T17:46:20;17.50;6.70
939;DHT22;456;53.584;9.968;2022-12-18T17:48:45;17.40;6.60
939;DHT22;456;53.584;9.968;2022-12-18T17:51:11;17.50;6.60
939;DHT22;456;53.584;9.968;2022-12-18T17:53:38;17.50;6.60
939;DHT22;456;53.584;9.968;2022-12-18T17:56:04;17.50;6.60
939;DHT22;456;53.584;9.968;2022-12-18T17:58:32;17.40;6.60
939;DHT22;456;53.584;9.968;2022-12-18T18:00:58;17.50;6.60
939;DHT22;456;53.584;9.968;2022-12-18T18:03:24;17.50;6.60
939;DHT22;456;53.584;9.968;2022-12-18T18:06:00;17.50;6.70
939;DHT22;456;53.584;9.968;2022-12-18T18:08:27;17.40;6.60
939;DHT22;456;53.584;9.968;2022-12-18T18:10:53;17.40;6.60
939;DHT22;456;53.584;9.968;2022-12-18T18:13:22;17.40;6.60
939;DHT22;456;53.584;9.968;2022-12-18T18:16:09;17.50;6.70
939;DHT22;456;53.584;9.968;2022-12-18T18:18:35;17.40;6.60
939;DHT22;456;53.584;9.968;2022-12-18T18:21:04;17.40;6.60
939;DHT22;456;53.584;9.968;2022-12-18T18:23:31;17.40;6.60
939;DHT22;456;53.584;9.968;2022-12-18T18:26:05;17.40;6.60
939;DHT22;456;53.584;9.968;2022-12-18T18:28:31;17.40;6.50
939;DHT22;456;53.584;9.968;2022-12-18T18:30:57;17.50;6.60
939;DHT22;456;53.584;9.968;2022-12-18T18:33:23;17.40;6.50
939;DHT22;456;53.584;9.968;2022-12-18T18:35:49;17.40;6.50
939;DHT22;456;53.584;9.968;2022-12-18T18:38:14;17.50;6.60
939;DHT22;456;53.584;9.968;2022-12-18T18:40:40;17.50;6.60
939;DHT22;456;53.584;9.968;2022-12-18T18:43:05;17.50;6.60
939;DHT22;456;53.584;9.968;2022-12-18T18:45:31;17.50;6.60
939;DHT22;456;53.584;9.968;2022-12-18T18:47:57;17.50;6.70
939;DHT22;456;53.584;9.968;2022-12-18T18:50:23;17.50;6.60
939;DHT22;456;53.584;9.968;2022-12-18T18:52:49;17.50;6.60
939;DHT22;456;53.584;9.968;2022-12-18T18:55:14;17.50;6.70
939;DHT22;456;53.584;9.968;2022-12-18T18:57:40;17.40;6.60